Terminal Aerodrome Forecast
Issued by NWS

Home | Current Version | Previous Version | Text Only | Print | Product List | Glossary Off
Versions: 1 2 3 4 5 6 7 8 9 10 11 12 13 14 15 16 17 18 19 20 21 22 23

000
FTUS43 KMPX 191700
TAFAXN
TAF
KAXN 191739Z 1918/2018 19014G21KT 6SM BR BKN008 OVC015
     FM191900 21012G20KT P6SM BKN015
     FM192100 22011KT P6SM SCT015 BKN100
     FM200000 24008KT P6SM SCT250
     FM200800 30009KT P6SM SKC=

USA.gov is the U.S. government's official web portal to all federal, state and local government web resources and services.